Time;durP1;ratioP1;P1;durP2;ratioP2;P2;SDS_P1;SDS_P2;PMS_P1;PMS_P2;Temp;Humidity;BMP_temperature;BMP_pressure;BME280_temperature;BME280_humidity;BME280_pressure;Samples;Min_cycle;Max_cycle;Signal;HPM_P1;HPM_P2
2023/09/12 00:00:30;;;;;;;16.27;11.43;;;17.60;99.90;;;;;;5070857;28;20475;-68
2023/09/12 00:02:58;;;;;;;17.60;11.57;;;17.50;99.90;;;;;;5071650;28;20964;-68
2023/09/12 00:05:26;;;;;;;14.90;10.93;;;17.50;99.90;;;;;;5070164;28;20543;-67
2023/09/12 00:07:56;;;;;;;25.47;13.63;;;17.50;99.90;;;;;;5071487;28;20504;-68
2023/09/12 00:10:24;;;;;;;16.53;11.03;;;17.40;99.90;;;;;;5070168;28;20474;-69
2023/09/12 00:12:52;;;;;;;17.77;11.47;;;17.40;99.90;;;;;;5070015;28;20831;-68
2023/09/12 00:15:20;;;;;;;16.80;12.07;;;17.30;99.90;;;;;;5069742;28;20457;-67
2023/09/12 00:17:49;;;;;;;17.17;10.90;;;17.30;99.90;;;;;;5070258;28;20533;-68
2023/09/12 00:20:17;;;;;;;20.00;12.60;;;17.30;99.90;;;;;;5069570;28;20466;-65
2023/09/12 00:22:45;;;;;;;17.97;11.13;;;17.30;99.90;;;;;;5068058;28;20455;-69
2023/09/12 00:25:14;;;;;;;16.73;11.40;;;17.20;99.90;;;;;;5069509;28;20483;-68
2023/09/12 00:27:42;;;;;;;15.57;10.50;;;17.30;99.90;;;;;;5069978;28;20477;-68
2023/09/12 00:30:11;;;;;;;15.53;10.20;;;17.40;99.90;;;;;;5069752;28;20528;-69
2023/09/12 00:32:39;;;;;;;19.37;12.90;;;17.30;99.90;;;;;;5069153;28;20585;-68
2023/09/12 00:35:07;;;;;;;18.60;10.90;;;17.30;99.90;;;;;;5069336;28;20894;-68
2023/09/12 00:37:35;;;;;;;20.20;12.07;;;17.30;99.90;;;;;;5069607;28;20451;-67
2023/09/12 00:40:04;;;;;;;14.47;10.47;;;17.30;99.90;;;;;;5067979;28;20558;-68
2023/09/12 00:42:33;;;;;;;15.70;10.63;;;17.30;99.90;;;;;;5069394;28;20447;-69
2023/09/12 00:45:01;;;;;;;15.87;11.17;;;17.40;99.90;;;;;;5069255;28;20486;-68
2023/09/12 00:47:30;;;;;;;18.43;11.07;;;17.30;99.90;;;;;;5069436;28;20451;-68
2023/09/12 00:49:59;;;;;;;17.70;11.60;;;17.20;99.90;;;;;;5069337;28;20834;-68
2023/09/12 00:52:29;;;;;;;17.77;11.57;;;17.10;99.90;;;;;;5069595;28;20449;-68
2023/09/12 00:54:57;;;;;;;20.63;11.70;;;17.10;99.90;;;;;;5068879;28;20497;-68
2023/09/12 00:57:25;;;;;;;14.83;9.77;;;17.10;99.90;;;;;;5061237;28;20508;-69
2023/09/12 00:59:55;;;;;;;20.20;11.80;;;17.00;99.90;;;;;;5069341;28;20495;-68
2023/09/12 01:02:23;;;;;;;17.43;11.70;;;16.90;99.90;;;;;;5069116;28;20451;-68
2023/09/12 01:04:52;;;;;;;20.97;11.40;;;17.00;99.90;;;;;;5069286;28;20489;-68
2023/09/12 01:07:20;;;;;;;16.60;11.20;;;17.10;99.90;;;;;;5069499;28;20877;-68
2023/09/12 01:09:48;;;;;;;17.67;10.67;;;17.10;99.90;;;;;;5069623;28;20514;-67
2023/09/12 01:12:17;;;;;;;15.90;10.10;;;17.00;99.90;;;;;;5069224;28;20451;-66
2023/09/12 01:14:45;;;;;;;20.17;11.03;;;17.00;99.90;;;;;;5067521;28;20441;-68
2023/09/12 01:17:14;;;;;;;17.30;11.40;;;16.90;99.90;;;;;;5069447;28;20579;-69
2023/09/12 01:19:42;;;;;;;17.07;11.33;;;16.80;99.90;;;;;;5065282;28;20475;-68
2023/09/12 01:22:35;;;;;;;18.97;12.00;;;16.80;99.90;;;;;;5065758;28;20447;-68
2023/09/12 01:25:29;;;;;;;16.53;10.50;;;16.80;99.90;;;;;;5059218;28;20507;-68
2023/09/12 01:28:03;;;;;;;21.03;13.17;;;16.70;99.90;;;;;;5048394;28;20896;-67
2023/09/12 01:30:33;;;;;;;21.47;14.20;;;16.70;99.90;;;;;;5051880;28;20471;-67
2023/09/12 01:33:02;;;;;;;21.07;14.20;;;16.60;99.90;;;;;;5068884;28;20504;-68
2023/09/12 01:35:30;;;;;;;22.93;13.00;;;16.60;99.90;;;;;;5068448;28;20505;-67
2023/09/12 01:37:58;;;;;;;21.03;13.73;;;16.60;99.90;;;;;;5069386;28;20535;-68
2023/09/12 01:40:43;;;;;;;23.13;12.90;;;16.60;99.90;;;;;;5068797;28;20493;-69
2023/09/12 01:43:16;;;;;;;17.30;12.50;;;16.60;99.90;;;;;;5068927;28;20445;-68
2023/09/12 01:45:45;;;;;;;17.23;12.70;;;16.70;99.90;;;;;;5067175;28;20476;-67
2023/09/12 01:48:19;;;;;;;18.00;12.40;;;16.60;99.90;;;;;;5068512;28;21073;-68
2023/09/12 01:50:48;;;;;;;18.17;12.60;;;16.50;99.90;;;;;;5057789;28;20867;-68
2023/09/12 01:53:16;;;;;;;18.03;11.47;;;16.50;99.90;;;;;;5059088;28;20451;-69
2023/09/12 01:55:45;;;;;;;17.40;12.00;;;16.40;99.90;;;;;;5063582;28;20876;-69
2023/09/12 01:58:15;;;;;;;19.73;11.70;;;16.60;99.90;;;;;;5068861;28;20447;-67
2023/09/12 02:00:43;;;;;;;18.23;10.53;;;16.60;99.90;;;;;;5068679;28;20447;-66
2023/09/12 02:03:11;;;;;;;17.70;11.30;;;16.70;99.90;;;;;;5067508;28;21006;-68
2023/09/12 02:05:40;;;;;;;18.33;10.63;;;16.70;99.90;;;;;;5066874;28;20498;-67
2023/09/12 02:08:08;;;;;;;18.00;13.10;;;16.70;99.90;;;;;;5070237;28;21119;-68
2023/09/12 02:10:36;;;;;;;20.20;13.83;;;16.50;99.90;;;;;;5072026;28;20483;-68
2023/09/12 02:13:04;;;;;;;18.00;12.10;;;16.40;99.90;;;;;;5072011;28;20451;-68
2023/09/12 02:15:33;;;;;;;20.97;12.47;;;16.40;99.90;;;;;;5071997;28;20513;-68
2023/09/12 02:18:03;;;;;;;20.13;11.13;;;16.40;99.90;;;;;;5072547;28;20451;-67
2023/09/12 02:20:33;;;;;;;19.23;12.40;;;16.50;99.90;;;;;;5072328;28;20494;-67
2023/09/12 02:23:01;;;;;;;19.23;12.50;;;16.50;99.90;;;;;;5070330;28;20809;-67
2023/09/12 02:25:29;;;;;;;20.10;12.90;;;16.40;99.90;;;;;;5063946;28;20478;-67
2023/09/12 02:27:57;;;;;;;19.53;13.17;;;16.30;99.90;;;;;;5072206;28;20443;-68
2023/09/12 02:30:25;;;;;;;18.40;13.37;;;16.30;99.90;;;;;;5072185;28;20563;-69
2023/09/12 02:32:54;;;;;;;20.67;13.63;;;16.30;99.90;;;;;;5071719;28;20508;-68
2023/09/12 02:35:22;;;;;;;19.47;13.43;;;16.20;99.90;;;;;;5071853;28;20534;-68
2023/09/12 02:37:50;;;;;;;15.87;12.20;;;16.20;99.90;;;;;;5072117;28;20478;-68
2023/09/12 02:40:19;;;;;;;23.07;12.70;;;16.10;99.90;;;;;;5071416;28;20467;-66
2023/09/12 02:42:46;;;;;;;17.50;13.10;;;16.20;99.90;;;;;;5065639;28;20467;-68
2023/09/12 02:45:14;;;;;;;21.10;12.70;;;16.20;99.90;;;;;;5051314;28;20512;-68
2023/09/12 02:47:43;;;;;;;21.67;11.70;;;16.20;99.90;;;;;;5051814;28;20479;-68
2023/09/12 02:50:12;;;;;;;22.47;13.70;;;16.20;99.90;;;;;;5051250;28;20478;-67
2023/09/12 02:52:40;;;;;;;18.30;13.60;;;16.10;99.90;;;;;;5051193;28;20452;-67
2023/09/12 02:55:08;;;;;;;21.13;13.10;;;16.20;99.90;;;;;;5064023;28;20447;-67
2023/09/12 02:57:36;;;;;;;21.30;13.40;;;16.20;99.90;;;;;;5071493;28;20504;-67
2023/09/12 03:00:08;;;;;;;18.93;11.83;;;16.10;99.90;;;;;;5071554;28;20985;-67
2023/09/12 03:02:36;;;;;;;24.10;11.67;;;16.10;99.90;;;;;;5071123;28;20925;-70
2023/09/12 03:05:05;;;;;;;19.23;12.20;;;16.10;99.90;;;;;;5071190;28;20450;-68
2023/09/12 03:07:34;;;;;;;17.50;10.73;;;16.10;99.90;;;;;;5071455;28;20514;-67
2023/09/12 03:10:03;;;;;;;19.40;10.70;;;16.20;99.90;;;;;;5071259;28;20669;-69
2023/09/12 03:12:31;;;;;;;18.43;10.80;;;16.20;99.90;;;;;;5069800;28;20793;-67
2023/09/12 03:14:58;;;;;;;17.50;11.43;;;16.20;99.90;;;;;;5070787;28;20497;-68
2023/09/12 03:17:28;;;;;;;17.50;11.40;;;16.20;99.90;;;;;;5071109;28;20442;-68
2023/09/12 03:19:56;;;;;;;16.83;11.00;;;16.10;99.90;;;;;;5070808;28;20965;-68
2023/09/12 03:22:24;;;;;;;17.20;10.37;;;16.20;99.90;;;;;;5070635;28;20454;-67
2023/09/12 03:24:53;;;;;;;19.10;10.43;;;16.30;99.90;;;;;;5070667;28;20443;-67
2023/09/12 03:27:21;;;;;;;16.00;11.43;;;16.30;99.90;;;;;;5070852;28;21100;-68
2023/09/12 03:29:49;;;;;;;19.57;11.40;;;16.30;99.90;;;;;;5069129;28;21192;-67
2023/09/12 03:32:17;;;;;;;15.80;10.60;;;16.30;99.90;;;;;;5070475;28;20443;-68
2023/09/12 03:34:45;;;;;;;18.43;12.17;;;16.10;99.90;;;;;;5070742;28;20547;-67
2023/09/12 03:37:13;;;;;;;17.80;11.83;;;16.10;99.90;;;;;;5070607;28;20431;-68
2023/09/12 03:39:41;;;;;;;18.93;11.67;;;16.10;99.90;;;;;;5070742;28;20479;-68
2023/09/12 03:42:11;;;;;;;16.77;11.00;;;16.00;99.90;;;;;;5070497;28;20532;-67
2023/09/12 03:44:39;;;;;;;17.53;11.20;;;16.00;99.90;;;;;;5070218;28;20477;-68
2023/09/12 03:47:07;;;;;;;16.57;11.10;;;16.00;99.90;;;;;;5068777;28;20478;-68
2023/09/12 03:49:35;;;;;;;14.93;10.57;;;15.90;99.90;;;;;;5069671;28;20467;-67
2023/09/12 03:52:04;;;;;;;18.07;12.00;;;15.90;99.90;;;;;;5054324;28;20444;-67
2023/09/12 03:54:32;;;;;;;19.03;12.40;;;15.90;99.90;;;;;;5049918;28;20453;-68
2023/09/12 03:57:00;;;;;;;17.27;11.53;;;16.00;99.90;;;;;;5050272;28;20517;-68
2023/09/12 03:59:29;;;;;;;19.00;12.40;;;16.00;99.90;;;;;;5052623;28;20543;-68
2023/09/12 04:01:57;;;;;;;18.63;12.07;;;16.10;99.90;;;;;;5060165;28;20455;-68
2023/09/12 04:04:25;;;;;;;18.73;11.03;;;16.00;99.90;;;;;;5066302;28;20831;-68
2023/09/12 04:06:54;;;;;;;16.47;11.47;;;15.90;99.90;;;;;;5066891;28;20471;-68
2023/09/12 04:09:22;;;;;;;18.60;12.40;;;15.90;99.90;;;;;;5050999;28;20563;-69
2023/09/12 04:11:50;;;;;;;16.50;11.40;;;16.00;99.90;;;;;;5049625;28;20467;-68
2023/09/12 04:14:18;;;;;;;18.17;12.43;;;16.20;99.90;;;;;;5050183;28;20456;-67
2023/09/12 04:16:48;;;;;;;23.00;12.33;;;16.30;99.90;;;;;;5050058;28;20476;-68
2023/09/12 04:19:17;;;;;;;20.80;11.43;;;16.20;99.90;;;;;;5060026;28;20558;-68
2023/09/12 04:21:44;;;;;;;17.60;12.40;;;16.10;99.90;;;;;;5071347;28;20454;-68
2023/09/12 04:24:12;;;;;;;17.47;11.87;;;16.20;99.90;;;;;;5069680;28;20474;-67
2023/09/12 04:26:40;;;;;;;18.30;11.63;;;16.10;99.90;;;;;;5070088;28;20512;-69
2023/09/12 04:29:08;;;;;;;17.37;11.87;;;16.00;99.90;;;;;;5070185;28;21008;-68
2023/09/12 04:31:36;;;;;;;19.90;11.17;;;16.00;99.90;;;;;;5069387;28;21042;-67
2023/09/12 04:34:06;;;;;;;19.03;11.70;;;16.00;99.90;;;;;;5069069;28;20469;-66
2023/09/12 04:36:34;;;;;;;17.73;11.97;;;16.00;99.90;;;;;;5061498;28;20447;-68
2023/09/12 04:39:02;;;;;;;18.20;11.00;;;16.20;99.90;;;;;;5069591;28;20541;-68
2023/09/12 04:41:30;;;;;;;19.70;12.03;;;16.30;99.90;;;;;;5069689;28;20575;-72
2023/09/12 04:43:58;;;;;;;16.40;11.10;;;16.30;99.90;;;;;;5069795;28;20517;-70
2023/09/12 04:46:26;;;;;;;19.87;12.30;;;16.20;99.90;;;;;;5069033;28;20559;-70
2023/09/12 04:48:54;;;;;;;18.23;11.27;;;16.30;99.90;;;;;;5065059;28;20468;-70
2023/09/12 04:51:23;;;;;;;18.20;11.20;;;16.30;99.90;;;;;;5068739;28;20813;-69
2023/09/12 04:53:51;;;;;;;17.00;12.00;;;16.20;99.90;;;;;;5069310;28;20471;-71
2023/09/12 04:56:19;;;;;;;17.47;11.17;;;16.30;99.90;;;;;;5069096;28;20524;-71
2023/09/12 04:58:48;;;;;;;19.57;11.47;;;16.50;99.90;;;;;;5063413;28;20471;-70
2023/09/12 05:01:16;;;;;;;17.90;11.07;;;16.50;99.90;;;;;;5057561;28;20451;-70
2023/09/12 05:03:44;;;;;;;19.93;11.90;;;16.60;99.90;;;;;;5064837;28;20493;-69
2023/09/12 05:06:12;;;;;;;19.47;11.33;;;16.60;99.90;;;;;;5066965;28;20453;-70
2023/09/12 05:08:42;;;;;;;19.27;11.50;;;16.50;99.90;;;;;;5065222;28;21203;-70
2023/09/12 05:11:10;;;;;;;18.70;11.30;;;16.50;99.90;;;;;;5060716;28;20462;-70
2023/09/12 05:13:38;;;;;;;23.77;11.50;;;16.50;99.90;;;;;;5065855;28;20442;-69
2023/09/12 05:16:06;;;;;;;21.20;12.27;;;16.50;99.90;;;;;;5052333;28;20538;-71
2023/09/12 05:18:34;;;;;;;20.03;11.63;;;16.50;99.90;;;;;;5049034;28;20471;-68
2023/09/12 05:21:02;;;;;;;19.20;11.40;;;16.70;99.90;;;;;;5048730;28;20450;-70
2023/09/12 05:23:30;;;;;;;16.33;11.40;;;16.80;99.90;;;;;;5063599;28;20455;-68
2023/09/12 05:25:59;;;;;;;18.10;11.57;;;16.90;99.90;;;;;;5068920;28;20451;-70
2023/09/12 05:28:28;;;;;;;16.60;11.07;;;17.10;99.90;;;;;;5068889;28;20981;-71
2023/09/12 05:30:55;;;;;;;19.20;12.40;;;17.30;99.90;;;;;;5069048;28;20451;-70
2023/09/12 05:33:24;;;;;;;17.20;11.13;;;17.30;99.90;;;;;;5068641;28;20455;-70
2023/09/12 05:35:52;;;;;;;17.00;11.63;;;17.30;99.90;;;;;;5069071;28;20447;-70
2023/09/12 05:38:19;;;;;;;16.87;10.77;;;17.30;99.90;;;;;;5067996;28;20450;-69
2023/09/12 05:40:49;;;;;;;20.03;11.07;;;17.30;99.90;;;;;;5062574;28;21026;-70
2023/09/12 05:43:18;;;;;;;17.27;11.00;;;17.40;99.90;;;;;;5070026;28;20537;-70
2023/09/12 05:45:46;;;;;;;17.50;10.73;;;17.50;99.90;;;;;;5067083;28;20473;-70
2023/09/12 05:48:14;;;;;;;14.87;10.70;;;17.50;99.90;;;;;;5062042;28;20536;-70
2023/09/12 05:50:42;;;;;;;17.53;11.60;;;17.60;99.90;;;;;;5066168;28;20535;-73
2023/09/12 05:53:10;;;;;;;16.60;11.53;;;17.70;99.90;;;;;;5052625;28;20458;-71
2023/09/12 05:55:38;;;;;;;17.23;11.00;;;17.90;99.90;;;;;;5051856;28;20455;-70
2023/09/12 05:58:06;;;;;;;19.13;10.60;;;18.10;99.90;;;;;;5052330;28;20466;-71
2023/09/12 06:00:35;;;;;;;18.87;12.00;;;18.30;99.90;;;;;;5052639;28;20997;-70
2023/09/12 06:03:04;;;;;;;23.60;12.27;;;18.50;99.90;;;;;;5052737;28;20444;-70
2023/09/12 06:05:32;;;;;;;18.90;11.73;;;18.80;99.90;;;;;;5052540;28;20447;-70
2023/09/12 06:08:00;;;;;;;20.77;10.90;;;19.10;99.90;;;;;;5052653;28;20479;-70
2023/09/12 06:10:28;;;;;;;15.43;11.33;;;19.30;99.90;;;;;;5052157;28;20484;-70
2023/09/12 06:12:56;;;;;;;18.03;11.00;;;19.50;99.90;;;;;;5052152;28;20802;-68
2023/09/12 06:15:24;;;;;;;18.43;10.40;;;19.60;99.90;;;;;;5052417;28;20884;-67
2023/09/12 06:17:53;;;;;;;17.17;10.37;;;19.80;99.90;;;;;;5052153;28;21015;-68
2023/09/12 06:20:22;;;;;;;17.03;11.43;;;20.00;99.90;;;;;;5052944;28;20472;-70
2023/09/12 06:22:50;;;;;;;16.10;9.70;;;20.30;99.90;;;;;;5052250;28;20466;-70
2023/09/12 06:25:19;;;;;;;17.03;10.07;;;20.50;99.90;;;;;;5052471;28;21047;-70
2023/09/12 06:27:47;;;;;;;19.83;10.30;;;20.70;99.90;;;;;;5052585;28;20573;-71
2023/09/12 06:30:15;;;;;;;17.50;10.20;;;20.70;99.90;;;;;;5052409;28;20476;-70
2023/09/12 06:32:43;;;;;;;15.00;11.03;;;20.80;99.90;;;;;;5051985;28;20486;-71
2023/09/12 06:35:13;;;;;;;14.50;9.40;;;20.80;99.90;;;;;;5052126;28;20475;-72
2023/09/12 06:37:40;;;;;;;20.03;11.30;;;20.90;99.90;;;;;;5052118;28;20448;-69
2023/09/12 06:40:09;;;;;;;17.77;10.60;;;21.00;99.90;;;;;;5052374;28;20542;-69
2023/09/12 06:42:37;;;;;;;15.87;10.13;;;21.00;99.90;;;;;;5051851;28;20480;-70
2023/09/12 06:45:06;;;;;;;15.87;10.83;;;21.10;99.90;;;;;;5051814;28;20487;-69
2023/09/12 06:47:34;;;;;;;16.30;9.97;;;21.10;99.90;;;;;;5051868;28;20555;-71
2023/09/12 06:50:03;;;;;;;16.13;10.50;;;21.30;99.90;;;;;;5051596;28;20546;-68
2023/09/12 06:52:36;;;;;;;16.73;11.30;;;21.40;99.90;;;;;;5051762;28;20514;-68
2023/09/12 06:55:04;;;;;;;18.30;11.50;;;21.50;99.90;;;;;;5051112;28;20490;-69
2023/09/12 06:57:32;;;;;;;24.07;12.17;;;21.80;99.90;;;;;;5051671;28;20448;-69
2023/09/12 07:00:00;;;;;;;22.50;11.60;;;21.80;99.90;;;;;;5051367;28;20506;-68
2023/09/12 07:02:34;;;;;;;17.60;10.17;;;21.70;99.90;;;;;;5051163;28;20494;-70
2023/09/12 07:05:03;;;;;;;19.73;11.67;;;21.80;99.90;;;;;;5051210;28;20976;-70
2023/09/12 07:07:32;;;;;;;17.60;11.27;;;21.90;99.90;;;;;;5051322;28;20947;-69
2023/09/12 07:10:01;;;;;;;15.37;10.47;;;22.00;99.90;;;;;;5050898;28;20480;-71
2023/09/12 07:12:49;;;;;;;15.80;10.47;;;22.00;99.90;;;;;;5051004;28;20439;-69
2023/09/12 07:15:17;;;;;;;16.67;11.17;;;22.00;99.90;;;;;;5050597;28;20451;-67
2023/09/12 07:17:45;;;;;;;20.73;11.50;;;22.00;99.90;;;;;;5051642;28;20531;-70
2023/09/12 07:20:13;;;;;;;15.80;11.80;;;22.00;99.90;;;;;;5051142;28;20460;-70
2023/09/12 07:22:41;;;;;;;19.83;11.87;;;22.20;99.90;;;;;;5050839;28;20440;-69
2023/09/12 07:25:12;;;;;;;15.50;9.67;;;22.40;99.90;;;;;;5050965;28;20905;-71
2023/09/12 07:27:40;;;;;;;18.20;11.93;;;22.50;99.90;;;;;;5051115;28;20452;-70
2023/09/12 07:30:09;;;;;;;17.00;10.90;;;22.60;99.90;;;;;;5050914;28;20466;-70
2023/09/12 07:32:37;;;;;;;18.63;10.37;;;22.70;99.90;;;;;;5050815;28;20448;-69
2023/09/12 07:35:05;;;;;;;16.27;11.50;;;22.70;99.90;;;;;;5050781;28;20448;-70
2023/09/12 07:37:36;;;;;;;19.60;11.90;;;22.80;99.90;;;;;;5050808;28;20965;-70
2023/09/12 07:40:09;;;;;;;19.10;12.27;;;22.90;99.90;;;;;;5050647;28;20470;-67
2023/09/12 07:42:39;;;;;;;17.50;11.97;;;23.00;99.90;;;;;;5050618;28;20444;-70
2023/09/12 07:45:10;;;;;;;20.90;13.07;;;22.90;99.90;;;;;;5050604;28;20475;-71
2023/09/12 07:47:38;;;;;;;23.03;12.17;;;22.90;99.90;;;;;;5050918;28;20448;-69
2023/09/12 07:50:07;;;;;;;14.83;10.00;;;22.80;99.90;;;;;;5050693;28;20882;-69
2023/09/12 07:52:35;;;;;;;19.27;12.27;;;22.70;99.90;;;;;;5050191;28;20451;-70
2023/09/12 07:55:04;;;;;;;17.47;11.33;;;22.80;99.90;;;;;;5050304;28;21019;-71
2023/09/12 07:57:33;;;;;;;15.20;10.43;;;23.00;99.90;;;;;;5050638;28;20448;-69
2023/09/12 08:00:04;;;;;;;16.63;10.83;;;23.40;99.90;;;;;;5050358;28;20498;-70
2023/09/12 08:02:34;;;;;;;16.97;11.57;;;23.80;99.90;;;;;;5050045;28;20440;-70
2023/09/12 08:05:02;;;;;;;18.27;11.60;;;24.30;99.90;;;;;;5049405;28;20791;-69
2023/09/12 08:07:30;;;;;;;16.90;10.00;;;24.60;99.90;;;;;;5050001;28;20455;-69
2023/09/12 08:09:59;;;;;;;17.23;10.87;;;24.90;99.90;;;;;;5049998;28;20878;-70
2023/09/12 08:15:10;;;;;;;17.93;11.27;;;25.50;99.90;;;;;;5274782;23;21034;-69
2023/09/12 08:20:21;;;;;;;18.40;10.83;;;25.80;99.90;;;;;;5790752;23;20539;-70
2023/09/12 08:22:49;;;;;;;17.57;10.80;;;25.90;99.90;;;;;;4990032;28;20477;-70
2023/09/12 08:25:18;;;;;;;18.70;11.23;;;26.00;99.90;;;;;;5001064;28;20450;-70
2023/09/12 08:27:46;;;;;;;18.60;11.13;;;26.10;99.90;;;;;;5024927;28;20444;-70
2023/09/12 08:30:16;;;;;;;19.33;11.03;;;25.90;99.90;;;;;;5030615;28;20497;-71
2023/09/12 08:32:44;;;;;;;15.47;10.23;;;25.80;99.90;;;;;;4990233;28;20443;-70
2023/09/12 08:35:13;;;;;;;14.27;10.50;;;25.70;99.90;;;;;;4926616;29;20467;-71
2023/09/12 08:37:42;;;;;;;16.70;11.17;;;25.70;99.90;;;;;;4934648;29;20460;-70
2023/09/12 08:40:12;;;;;;;15.73;10.80;;;25.80;99.90;;;;;;4816759;29;20522;-71
2023/09/12 08:42:41;;;;;;;16.23;11.90;;;26.00;99.90;;;;;;4697011;29;1070426;-71
2023/09/12 08:45:13;;;;;;;19.37;10.47;;;26.10;99.90;;;;;;4724152;30;20241;-71
2023/09/12 08:47:44;;;;;;;17.90;11.27;;;26.40;99.90;;;;;;4713950;30;20514;-70
2023/09/12 08:50:14;;;;;;;18.73;11.77;;;26.60;99.90;;;;;;4713681;30;20504;-70
2023/09/12 08:52:43;;;;;;;16.53;11.47;;;26.80;99.90;;;;;;4714228;30;20507;-71
2023/09/12 08:55:33;;;;;;;16.80;10.50;;;26.70;99.90;;;;;;4713978;30;20496;-70
2023/09/12 08:58:03;;;;;;;16.97;11.13;;;26.40;99.90;;;;;;4714034;30;20464;-70
2023/09/12 09:00:31;;;;;;;18.23;11.40;;;26.40;99.90;;;;;;4713408;30;21016;-71
2023/09/12 09:03:00;;;;;;;17.80;11.80;;;26.60;99.90;;;;;;4713929;30;20464;-70
2023/09/12 09:05:29;;;;;;;16.43;11.20;;;26.80;99.90;;;;;;4713439;30;20491;-71
2023/09/12 09:07:58;;;;;;;15.97;11.20;;;26.90;99.90;;;;;;4714018;30;20488;-69
2023/09/12 09:10:32;;;;;;;16.30;10.90;;;26.80;99.90;;;;;;4713462;30;20510;-71
2023/09/12 09:13:18;;;;;;;16.27;11.10;;;27.00;99.90;;;;;;4714438;30;20468;-71
2023/09/12 09:15:45;;;;;;;16.30;11.73;;;27.40;99.90;;;;;;4714808;30;20545;-71
2023/09/12 09:18:15;;;;;;;16.77;11.10;;;27.80;99.90;;;;;;4720028;30;20513;-72
2023/09/12 09:20:45;;;;;;;14.50;10.13;;;28.20;99.90;;;;;;4720054;30;20562;-71
2023/09/12 09:23:13;;;;;;;14.00;9.70;;;28.50;99.90;;;;;;4720529;30;20463;-70
2023/09/12 09:25:43;;;;;;;17.60;10.40;;;28.80;99.90;;;;;;4720250;30;21020;-71
2023/09/12 09:28:18;;;;;;;13.03;10.53;;;28.90;99.90;;;;;;4720044;30;20471;-68
2023/09/12 09:30:47;;;;;;;13.87;10.37;;;29.40;99.90;;;;;;4719270;30;20521;-68
2023/09/12 09:33:16;;;;;;;15.57;11.70;;;29.80;99.70;;;;;;4719422;30;20521;-69
2023/09/12 09:35:47;;;;;;;14.57;9.90;;;30.00;99.60;;;;;;4719497;30;21035;-68
2023/09/12 09:38:16;;;;;;;13.80;10.33;;;30.20;97.70;;;;;;4730693;30;21317;-69
2023/09/12 09:40:45;;;;;;;14.90;9.90;;;30.30;97.20;;;;;;4770341;29;20495;-68
2023/09/12 09:43:14;;;;;;;12.20;9.60;;;30.20;97.30;;;;;;4809336;29;20512;-70
2023/09/12 09:45:47;;;;;;;14.90;10.10;;;30.40;96.00;;;;;;4802104;29;20954;-68
2023/09/12 09:48:21;;;;;;;13.47;9.40;;;30.70;94.60;;;;;;4804941;29;20474;-72
2023/09/12 09:50:51;;;;;;;14.50;9.97;;;30.50;92.90;;;;;;4803989;29;20509;-71
2023/09/12 09:53:26;;;;;;;15.17;9.80;;;30.30;92.40;;;;;;4802360;29;20531;-72
2023/09/12 09:56:09;;;;;;;13.47;9.20;;;30.50;90.30;;;;;;4805492;29;20491;-71
2023/09/12 09:58:37;;;;;;;16.73;10.57;;;30.70;89.30;;;;;;4802817;29;20798;-71
2023/09/12 10:01:10;;;;;;;16.60;9.73;;;30.90;88.90;;;;;;4802226;29;20541;-70
2023/09/12 10:03:40;;;;;;;15.40;9.33;;;31.20;85.80;;;;;;4805296;29;20941;-69
2023/09/12 10:06:10;;;;;;;13.17;9.47;;;31.40;85.70;;;;;;4808051;29;20486;-69
2023/09/12 10:08:41;;;;;;;13.97;8.80;;;31.50;86.40;;;;;;4807719;29;20458;-68
2023/09/12 10:11:10;;;;;;;12.93;8.93;;;31.70;84.90;;;;;;4807243;29;20506;-69
2023/09/12 10:13:41;;;;;;;16.40;9.40;;;32.00;82.50;;;;;;4807611;29;20467;-70
2023/09/12 10:16:11;;;;;;;15.47;9.57;;;31.60;76.00;;;;;;4807471;29;20487;-71
2023/09/12 10:18:50;;;;;;;14.23;11.30;;;31.30;82.20;;;;;;4805302;29;21169;-71
2023/09/12 10:21:25;;;;;;;14.87;10.20;;;31.60;79.20;;;;;;4807027;29;20473;-72
2023/09/12 10:23:53;;;;;;;13.60;10.20;;;31.70;78.20;;;;;;4807610;29;20459;-71
2023/09/12 10:26:23;;;;;;;16.13;10.40;;;31.60;77.50;;;;;;4807557;29;20460;-72
2023/09/12 10:28:52;;;;;;;13.20;9.47;;;32.00;75.40;;;;;;4805512;29;20946;-71
2023/09/12 10:31:20;;;;;;;15.90;8.40;;;31.90;71.90;;;;;;4803051;29;20595;-72
2023/09/12 10:33:51;;;;;;;11.80;9.40;;;31.70;75.00;;;;;;4804820;29;20489;-69
2023/09/12 10:36:20;;;;;;;13.77;10.00;;;32.00;74.80;;;;;;4804644;29;20447;-70
2023/09/12 10:38:49;;;;;;;14.73;9.10;;;32.60;76.80;;;;;;4813060;29;20469;-70
2023/09/12 10:41:18;;;;;;;14.63;9.00;;;33.20;68.60;;;;;;4921087;29;20474;-70
2023/09/12 10:43:49;;;;;;;13.23;8.27;;;33.30;66.00;;;;;;4905604;29;20481;-70
2023/09/12 10:46:17;;;;;;;17.60;9.30;;;33.50;64.50;;;;;;4914407;29;20522;-70
2023/09/12 10:48:46;;;;;;;13.53;8.70;;;33.80;62.80;;;;;;4915749;29;20450;-70
2023/09/12 10:51:17;;;;;;;14.30;8.40;;;33.50;59.60;;;;;;4915254;29;20573;-70
2023/09/12 10:53:49;;;;;;;13.20;8.37;;;33.30;59.40;;;;;;4915492;29;20958;-70
2023/09/12 10:56:20;;;;;;;13.90;8.40;;;33.20;59.00;;;;;;4915296;29;20790;-70
2023/09/12 10:59:12;;;;;;;16.87;8.77;;;33.30;58.80;;;;;;4915663;29;20453;-70
2023/09/12 11:01:42;;;;;;;16.10;8.57;;;33.30;58.60;;;;;;4915310;29;20489;-70
2023/09/12 11:04:34;;;;;;;13.13;7.80;;;33.40;58.30;;;;;;4915842;29;20446;-70
2023/09/12 11:07:44;;;;;;;16.50;8.20;;;34.10;57.20;;;;;;4915693;29;20537;-70
2023/09/12 11:10:20;;;;;;;14.23;8.20;;;34.80;56.70;;;;;;4915458;29;20494;-70
2023/09/12 11:12:50;;;;;;;12.63;7.83;;;35.70;55.50;;;;;;4915566;29;20884;-70
2023/09/12 11:15:20;;;;;;;14.47;8.67;;;35.90;53.00;;;;;;4915353;29;20506;-70
2023/09/12 11:17:49;;;;;;;12.37;8.50;;;36.00;55.20;;;;;;4904864;29;20582;-71
2023/09/12 11:20:18;;;;;;;12.73;8.10;;;35.80;54.00;;;;;;4914404;29;20470;-70
2023/09/12 11:22:49;;;;;;;14.87;7.97;;;35.70;54.00;;;;;;4914934;29;20446;-70
2023/09/12 11:25:19;;;;;;;13.17;8.30;;;34.80;52.40;;;;;;4913082;29;20494;-71
2023/09/12 11:28:04;;;;;;;12.67;8.17;;;34.60;53.90;;;;;;4914781;29;20478;-71
2023/09/12 11:30:33;;;;;;;14.43;8.17;;;34.90;52.90;;;;;;4910579;29;20494;-71
2023/09/12 11:33:06;;;;;;;14.40;8.30;;;35.60;51.70;;;;;;4914407;29;20910;-71
2023/09/12 11:35:40;;;;;;;15.73;8.70;;;36.40;48.40;;;;;;4915389;29;20534;-71
2023/09/12 11:38:12;;;;;;;13.83;8.17;;;37.30;49.50;;;;;;4914995;29;20443;-72
2023/09/12 11:40:45;;;;;;;12.70;7.23;;;37.90;48.00;;;;;;4944417;28;20582;-71
2023/09/12 11:43:22;;;;;;;13.00;7.30;;;37.90;45.00;;;;;;4920561;28;20467;-71
2023/09/12 11:45:51;;;;;;;13.13;7.90;;;37.50;48.00;;;;;;4914870;29;20482;-70
2023/09/12 11:48:19;;;;;;;14.90;7.57;;;37.40;45.10;;;;;;4914739;29;20442;-71
2023/09/12 11:50:52;;;;;;;13.57;8.37;;;37.70;45.80;;;;;;4914249;29;20902;-71
2023/09/12 11:53:25;;;;;;;12.53;7.80;;;38.40;45.50;;;;;;4914836;29;20454;-71
2023/09/12 11:55:57;;;;;;;13.07;7.90;;;38.40;42.60;;;;;;4914420;29;20482;-72
2023/09/12 11:58:26;;;;;;;15.80;8.10;;;37.60;43.60;;;;;;4914447;29;20453;-71
2023/09/12 12:00:56;;;;;;;11.60;8.20;;;37.60;43.70;;;;;;4914106;29;20964;-71
2023/09/12 12:03:27;;;;;;;14.90;7.27;;;38.20;43.80;;;;;;4914557;29;20461;-71
2023/09/12 12:05:55;;;;;;;11.37;7.10;;;39.20;43.40;;;;;;4914696;29;20485;-70
2023/09/12 12:08:26;;;;;;;10.77;7.00;;;38.80;42.30;;;;;;4916472;29;21028;-71
2023/09/12 12:11:00;;;;;;;12.00;7.70;;;39.30;41.70;;;;;;4916399;29;20516;-72
2023/09/12 12:13:29;;;;;;;12.07;6.93;;;40.00;39.80;;;;;;4915877;29;20500;-71
2023/09/12 12:15:57;;;;;;;13.50;7.67;;;40.60;40.20;;;;;;4914789;29;20453;-71
2023/09/12 12:18:26;;;;;;;13.67;7.23;;;41.20;37.80;;;;;;4914838;29;20930;-71
2023/09/12 12:20:55;;;;;;;12.40;7.67;;;40.00;39.60;;;;;;4914388;29;20477;-70
2023/09/12 12:23:24;;;;;;;12.30;6.83;;;38.30;38.90;;;;;;4914077;29;20506;-70
2023/09/12 12:25:52;;;;;;;11.93;7.17;;;37.50;42.90;;;;;;4914057;29;20970;-71
2023/09/12 12:28:22;;;;;;;12.57;7.00;;;38.40;42.70;;;;;;4913817;29;20865;-71
2023/09/12 12:30:53;;;;;;;9.50;6.57;;;39.60;40.70;;;;;;4913767;29;20493;-69
2023/09/12 12:33:21;;;;;;;13.33;7.90;;;40.60;38.60;;;;;;4913898;29;20442;-70
2023/09/12 12:36:09;;;;;;;11.20;6.50;;;40.20;38.40;;;;;;4914033;29;20445;-71
2023/09/12 12:38:40;;;;;;;12.50;6.83;;;40.90;38.70;;;;;;4913927;29;20806;-71
2023/09/12 12:41:25;;;;;;;13.13;7.53;;;40.60;36.40;;;;;;4942527;28;20466;-71
2023/09/12 12:43:59;;;;;;;10.33;6.80;;;39.50;38.80;;;;;;4953408;28;20841;-71
2023/09/12 12:46:30;;;;;;;11.10;6.77;;;40.00;38.00;;;;;;4951801;28;20454;-72